createdAt,value
2022-10-08T00:00:02.019Z,1008.54
2022-10-08T00:01:02.012Z,1008.47
2022-10-08T00:02:02.079Z,1008.44
2022-10-08T00:03:02.000Z,1008.45
2022-10-08T00:04:02.025Z,1008.40
2022-10-08T00:05:01.948Z,1008.47
2022-10-08T00:06:01.985Z,1008.44
2022-10-08T00:07:01.929Z,1008.45
2022-10-08T00:08:01.914Z,1008.43
2022-10-08T00:09:01.915Z,1008.43
2022-10-08T00:10:01.897Z,1008.46
2022-10-08T00:11:01.897Z,1008.46
2022-10-08T00:12:01.885Z,1008.46
2022-10-08T00:13:01.854Z,1008.46
2022-10-08T00:14:01.853Z,1008.44
2022-10-08T00:15:01.838Z,1008.44
2022-10-08T00:16:01.858Z,1008.41
2022-10-08T00:17:01.815Z,1008.42
2022-10-08T00:18:01.819Z,1008.41
2022-10-08T00:19:01.789Z,1008.43
2022-10-08T00:20:01.794Z,1008.43
2022-10-08T00:21:01.786Z,1008.42
2022-10-08T00:22:01.774Z,1008.39
2022-10-08T00:23:01.747Z,1008.43
2022-10-08T00:24:01.732Z,1008.40
2022-10-08T00:25:01.730Z,1008.42
2022-10-08T00:26:01.732Z,1008.43
2022-10-08T00:27:01.702Z,1008.44
2022-10-08T00:28:01.779Z,1008.46
2022-10-08T00:29:01.677Z,1008.44
2022-10-08T00:30:01.668Z,1008.44
2022-10-08T00:31:01.683Z,1008.42
2022-10-08T00:32:01.776Z,1008.43
2022-10-08T00:33:01.617Z,1008.45
2022-10-08T00:34:01.656Z,1008.45
2022-10-08T00:35:01.596Z,1008.44
2022-10-08T00:36:01.598Z,1008.39
2022-10-08T00:37:01.585Z,1008.39
2022-10-08T00:38:01.569Z,1008.35
2022-10-08T00:39:01.591Z,1008.38
2022-10-08T00:40:01.570Z,1008.34
2022-10-08T00:41:01.545Z,1008.37
2022-10-08T00:42:01.528Z,1008.33
2022-10-08T00:43:01.547Z,1008.34
2022-10-08T00:44:01.537Z,1008.31
2022-10-08T00:45:01.501Z,1008.28
2022-10-08T00:46:01.594Z,1008.29
2022-10-08T00:47:01.481Z,1008.23
2022-10-08T00:48:01.471Z,1008.25
2022-10-08T00:49:01.455Z,1008.27
2022-10-08T00:50:01.467Z,1008.24
2022-10-08T00:51:01.443Z,1008.19
2022-10-08T00:52:01.415Z,1008.19
2022-10-08T00:53:01.417Z,1008.19
2022-10-08T00:54:01.398Z,1008.14
2022-10-08T00:55:01.407Z,1008.12
2022-10-08T00:56:01.369Z,1008.16
2022-10-08T00:57:01.370Z,1008.15
2022-10-08T00:58:01.347Z,1008.12
2022-10-08T00:59:01.345Z,1008.10
2022-10-08T01:00:01.354Z,1008.08
2022-10-08T01:01:01.350Z,1008.09
2022-10-08T01:02:01.321Z,1008.06
2022-10-08T01:03:01.296Z,1008.07
2022-10-08T01:04:01.276Z,1008.07
2022-10-08T01:05:01.271Z,1008.06
2022-10-08T01:06:01.282Z,1008.02
2022-10-08T01:07:01.237Z,1008.05
2022-10-08T01:08:01.242Z,1008.05
2022-10-08T01:09:01.236Z,1008.05
2022-10-08T01:10:01.213Z,1008.01
2022-10-08T01:11:01.217Z,1008.01
2022-10-08T01:12:01.193Z,1008.04
2022-10-08T01:13:01.185Z,1007.97
2022-10-08T01:14:01.174Z,1008.00
2022-10-08T01:15:01.143Z,1007.97
2022-10-08T01:16:01.216Z,1007.98
2022-10-08T01:17:01.151Z,1007.95
2022-10-08T01:18:01.121Z,1007.98
2022-10-08T01:19:01.113Z,1007.99
2022-10-08T01:20:01.107Z,1008.01
2022-10-08T01:21:01.123Z,1007.97
2022-10-08T01:22:01.081Z,1007.99
2022-10-08T01:23:01.075Z,1008.03
2022-10-08T01:24:01.056Z,1007.99
2022-10-08T01:25:01.035Z,1007.97
2022-10-08T01:26:01.034Z,1007.95
2022-10-08T01:27:01.035Z,1007.98
2022-10-08T01:28:01.100Z,1007.91
2022-10-08T01:29:01.012Z,1007.94
2022-10-08T01:30:00.986Z,1007.96
2022-10-08T01:31:00.977Z,1007.93
2022-10-08T01:32:01.004Z,1007.91
2022-10-08T01:33:00.936Z,1007.91
2022-10-08T01:34:00.936Z,1007.93
2022-10-08T01:35:00.942Z,1007.92
2022-10-08T01:36:00.922Z,1007.99
2022-10-08T01:37:00.924Z,1007.94
2022-10-08T01:38:00.908Z,1007.99
2022-10-08T01:39:00.881Z,1007.98
2022-10-08T01:40:00.874Z,1007.98
2022-10-08T01:41:00.869Z,1007.98
2022-10-08T01:42:00.850Z,1008.04
2022-10-08T01:43:00.864Z,1008.03
2022-10-08T01:44:00.843Z,1008.03
2022-10-08T01:45:00.813Z,1008.08
2022-10-08T01:46:00.904Z,1008.07
2022-10-08T01:47:00.816Z,1008.03
2022-10-08T01:48:00.793Z,1008.03
2022-10-08T01:49:00.769Z,1008.05
2022-10-08T01:50:00.777Z,1007.96
2022-10-08T01:51:00.743Z,1007.97
2022-10-08T01:52:00.728Z,1007.98
2022-10-08T01:53:00.773Z,1007.98
2022-10-08T01:54:00.699Z,1008.02
2022-10-08T01:55:00.702Z,1008.00
2022-10-08T01:56:00.711Z,1008.03
2022-10-08T01:57:00.687Z,1008.04
2022-10-08T01:58:00.662Z,1008.05
2022-10-08T01:59:00.699Z,1008.09
2022-10-08T02:00:00.638Z,1008.05
2022-10-08T02:01:00.681Z,1008.06
2022-10-08T02:02:00.663Z,1008.04
2022-10-08T02:03:00.607Z,1008.04
2022-10-08T02:04:00.629Z,1008.03
2022-10-08T02:05:00.587Z,1008.04
2022-10-08T02:06:00.575Z,1008.03
2022-10-08T02:07:00.574Z,1008.03
2022-10-08T02:08:00.548Z,1008.06
2022-10-08T02:09:00.568Z,1008.07
2022-10-08T02:10:00.532Z,1008.08
2022-10-08T02:11:00.521Z,1008.11
2022-10-08T02:12:00.516Z,1008.10
2022-10-08T02:13:00.499Z,1008.09
2022-10-08T02:14:00.478Z,1008.10
2022-10-08T02:15:00.527Z,1008.15
2022-10-08T02:16:00.457Z,1008.12
2022-10-08T02:17:00.454Z,1008.10
2022-10-08T02:18:00.440Z,1008.10
2022-10-08T02:19:00.451Z,1008.12
2022-10-08T02:20:00.437Z,1008.14
2022-10-08T02:21:00.407Z,1008.17
2022-10-08T02:22:00.395Z,1008.11
2022-10-08T02:23:00.379Z,1008.17
2022-10-08T02:24:00.363Z,1008.14
2022-10-08T02:25:00.386Z,1008.17
2022-10-08T02:26:00.376Z,1008.13
2022-10-08T02:27:00.341Z,1008.14
2022-10-08T02:28:00.376Z,1008.19
2022-10-08T02:29:00.308Z,1008.12
2022-10-08T02:30:00.311Z,1008.12
2022-10-08T02:31:00.297Z,1008.14
2022-10-08T02:32:00.396Z,1008.14
2022-10-08T02:33:00.261Z,1008.13
2022-10-08T02:34:00.268Z,1008.08
2022-10-08T02:35:00.253Z,1008.06
2022-10-08T02:36:00.289Z,1008.09
2022-10-08T02:37:00.230Z,1008.06
2022-10-08T02:38:00.203Z,1007.99
2022-10-08T02:39:00.196Z,1008.08
2022-10-08T02:40:00.201Z,1008.08
2022-10-08T02:41:00.204Z,1008.08
2022-10-08T02:42:00.168Z,1008.06
2022-10-08T02:43:00.151Z,1008.08
2022-10-08T02:44:00.147Z,1008.03
2022-10-08T02:45:00.125Z,1008.02
2022-10-08T02:46:00.240Z,1008.03
2022-10-08T02:47:00.126Z,1008.01
2022-10-08T02:48:00.095Z,1008.04
2022-10-08T02:49:00.083Z,1008.02
2022-10-08T02:50:00.162Z,1008.06
2022-10-08T02:51:00.085Z,1008.03
2022-10-08T02:52:00.080Z,1008.04
2022-10-08T02:53:00.090Z,1008.02
2022-10-08T02:54:00.024Z,1008.03
2022-10-08T02:55:00.011Z,1008.04
2022-10-08T02:56:00.027Z,1008.03
2022-10-08T02:57:00.015Z,1008.09
2022-10-08T02:57:59.984Z,1008.06
2022-10-08T02:58:59.967Z,1008.09
2022-10-08T02:59:59.972Z,1008.06
2022-10-08T03:01:00.043Z,1008.05
2022-10-08T03:02:00.007Z,1008.06
2022-10-08T03:02:59.929Z,1008.06
2022-10-08T03:03:59.928Z,1008.06
2022-10-08T03:04:59.900Z,1008.09
2022-10-08T03:05:59.906Z,1008.12
2022-10-08T03:06:59.875Z,1008.08
2022-10-08T03:07:59.870Z,1008.10
2022-10-08T03:08:59.866Z,1008.14
2022-10-08T03:09:59.854Z,1008.14
2022-10-08T03:10:59.853Z,1008.10
2022-10-08T03:11:59.837Z,1008.11
2022-10-08T03:12:59.823Z,1008.12
2022-10-08T03:13:59.825Z,1008.14
2022-10-08T03:14:59.809Z,1008.16
2022-10-08T03:15:59.805Z,1008.15
2022-10-08T03:16:59.813Z,1008.24
2022-10-08T03:17:59.761Z,1008.20
2022-10-08T03:18:59.770Z,1008.20
2022-10-08T03:19:59.736Z,1008.27
2022-10-08T03:20:59.746Z,1008.26
2022-10-08T03:21:59.705Z,1008.26
2022-10-08T03:22:59.695Z,1008.29
2022-10-08T03:23:59.686Z,1008.33
2022-10-08T03:24:59.675Z,1008.34
2022-10-08T03:25:59.692Z,1008.30
2022-10-08T03:26:59.662Z,1008.36
2022-10-08T03:27:59.668Z,1008.33
2022-10-08T03:28:59.626Z,1008.35
2022-10-08T03:29:59.634Z,1008.37
2022-10-08T03:30:59.710Z,1008.33
2022-10-08T03:31:59.598Z,1008.31
2022-10-08T03:32:59.569Z,1008.32
2022-10-08T03:33:59.579Z,1008.33
2022-10-08T03:34:59.560Z,1008.32
2022-10-08T03:35:59.577Z,1008.31
2022-10-08T03:36:59.545Z,1008.33
2022-10-08T03:37:59.541Z,1008.34
2022-10-08T03:38:59.522Z,1008.36
2022-10-08T03:39:59.502Z,1008.37
2022-10-08T03:40:59.511Z,1008.38
2022-10-08T03:41:59.479Z,1008.39
2022-10-08T03:42:59.472Z,1008.43
2022-10-08T03:43:59.456Z,1008.42
2022-10-08T03:44:59.455Z,1008.41
2022-10-08T03:45:59.500Z,1008.44
2022-10-08T03:46:59.423Z,1008.45
2022-10-08T03:47:59.412Z,1008.44
2022-10-08T03:48:59.404Z,1008.43
2022-10-08T03:49:59.395Z,1008.47
2022-10-08T03:50:59.408Z,1008.49
2022-10-08T03:51:59.365Z,1008.52
2022-10-08T03:52:59.363Z,1008.56
2022-10-08T03:53:59.349Z,1008.57
2022-10-08T03:54:59.325Z,1008.58
2022-10-08T03:55:59.343Z,1008.63
2022-10-08T03:56:59.312Z,1008.64
2022-10-08T03:57:59.302Z,1008.63
2022-10-08T03:58:59.296Z,1008.67
2022-10-08T03:59:59.281Z,1008.64
2022-10-08T04:00:59.269Z,1008.65
2022-10-08T04:01:59.279Z,1008.65
2022-10-08T04:02:59.286Z,1008.68
2022-10-08T04:03:59.229Z,1008.63
2022-10-08T04:04:59.227Z,1008.62
2022-10-08T04:05:59.210Z,1008.61
2022-10-08T04:06:59.222Z,1008.65
2022-10-08T04:07:59.181Z,1008.64
2022-10-08T04:08:59.201Z,1008.61
2022-10-08T04:09:59.178Z,1008.65
2022-10-08T04:10:59.152Z,1008.62
2022-10-08T04:11:59.143Z,1008.60
2022-10-08T04:12:59.175Z,1008.62
2022-10-08T04:13:59.146Z,1008.61
2022-10-08T04:14:59.107Z,1008.57
2022-10-08T04:15:59.119Z,1008.59
2022-10-08T04:16:59.091Z,1008.54
2022-10-08T04:17:59.108Z,1008.53
2022-10-08T04:18:59.085Z,1008.53
2022-10-08T04:19:59.061Z,1008.47
2022-10-08T04:20:59.038Z,1008.44
2022-10-08T04:21:59.044Z,1008.39
2022-10-08T04:22:59.028Z,1008.38
2022-10-08T04:23:59.041Z,1008.38
2022-10-08T04:24:59.011Z,1008.36
2022-10-08T04:25:58.980Z,1008.38
2022-10-08T04:26:58.969Z,1008.36
2022-10-08T04:27:58.961Z,1008.40
2022-10-08T04:28:58.985Z,1008.39
2022-10-08T04:29:58.938Z,1008.42
2022-10-08T04:30:58.968Z,1008.46
2022-10-08T04:31:58.942Z,1008.45
2022-10-08T04:32:58.932Z,1008.51
2022-10-08T04:33:58.887Z,1008.49
2022-10-08T04:34:58.933Z,1008.54
2022-10-08T04:36:00.297Z,1008.57
2022-10-08T04:36:58.863Z,1008.61
2022-10-08T04:37:58.844Z,1008.58
2022-10-08T04:38:58.837Z,1008.60
2022-10-08T04:39:58.827Z,1008.60
2022-10-08T04:40:58.863Z,1008.55
2022-10-08T04:41:58.813Z,1008.54
2022-10-08T04:42:58.790Z,1008.50
2022-10-08T04:43:58.794Z,1008.49
2022-10-08T04:44:58.807Z,1008.53
2022-10-08T04:45:58.830Z,1008.49
2022-10-08T04:46:58.752Z,1008.55
2022-10-08T04:47:58.744Z,1008.55
2022-10-08T04:48:58.731Z,1008.54
2022-10-08T04:49:58.728Z,1008.58
2022-10-08T04:50:58.723Z,1008.53
2022-10-08T04:51:59.245Z,1008.58
2022-10-08T04:52:58.673Z,1008.54
2022-10-08T04:53:58.704Z,1008.53
2022-10-08T04:54:58.663Z,1008.54
2022-10-08T04:55:58.644Z,1008.54
2022-10-08T04:56:58.640Z,1008.54
2022-10-08T04:57:58.673Z,1008.52
2022-10-08T04:58:58.619Z,1008.57
2022-10-08T05:00:16.936Z,1008.56
2022-10-08T05:00:58.608Z,1008.56
2022-10-08T05:01:58.643Z,1008.64
2022-10-08T05:02:58.626Z,1008.69
2022-10-08T05:03:58.597Z,1008.71
2022-10-08T05:04:58.550Z,1008.72
2022-10-08T05:05:58.530Z,1008.70
2022-10-08T05:06:58.525Z,1008.73
2022-10-08T05:07:58.537Z,1008.72
2022-10-08T05:08:58.495Z,1008.75
2022-10-08T05:09:58.514Z,1008.68
2022-10-08T05:10:58.473Z,1008.69
2022-10-08T05:11:58.500Z,1008.69
2022-10-08T05:12:58.460Z,1008.71
2022-10-08T05:13:58.443Z,1008.77
2022-10-08T05:14:58.422Z,1008.83
2022-10-08T05:15:58.514Z,1008.85
2022-10-08T05:16:58.414Z,1008.86
2022-10-08T05:17:58.400Z,1008.82
2022-10-08T05:18:58.385Z,1008.84
2022-10-08T05:19:58.391Z,1008.81
2022-10-08T05:20:58.362Z,1008.83
2022-10-08T05:21:58.371Z,1008.81
2022-10-08T05:22:58.337Z,1008.79
2022-10-08T05:23:58.365Z,1008.85
2022-10-08T05:24:58.312Z,1008.88
2022-10-08T05:25:58.314Z,1008.87
2022-10-08T05:26:59.292Z,1008.91
2022-10-08T05:27:58.300Z,1008.92
2022-10-08T05:28:58.271Z,1008.94
2022-10-08T05:29:58.300Z,1008.91
2022-10-08T05:30:58.274Z,1008.90
2022-10-08T05:31:58.265Z,1008.91
2022-10-08T05:32:58.237Z,1008.96
2022-10-08T05:33:58.246Z,1008.97
2022-10-08T05:34:58.225Z,1008.98
2022-10-08T05:35:58.224Z,1008.96
2022-10-08T05:36:58.194Z,1009.00
2022-10-08T05:37:58.171Z,1009.00
2022-10-08T05:38:58.164Z,1009.09
2022-10-08T05:39:58.186Z,1009.13
2022-10-08T05:40:58.141Z,1009.20
2022-10-08T05:41:58.118Z,1009.27
2022-10-08T05:42:58.117Z,1009.28
2022-10-08T05:43:58.124Z,1009.28
2022-10-08T05:44:58.090Z,1009.32
2022-10-08T05:45:58.095Z,1009.31
2022-10-08T05:46:58.147Z,1009.32
2022-10-08T05:47:58.063Z,1009.31
2022-10-08T05:48:58.065Z,1009.34
2022-10-08T05:49:58.039Z,1009.33
2022-10-08T05:50:58.027Z,1009.37
2022-10-08T05:51:58.065Z,1009.38
2022-10-08T05:52:58.030Z,1009.36
2022-10-08T05:53:57.995Z,1009.37
2022-10-08T05:54:57.978Z,1009.40
2022-10-08T05:55:57.958Z,1009.40
2022-10-08T05:56:57.973Z,1009.46
2022-10-08T05:57:58.180Z,1009.48
2022-10-08T05:58:57.931Z,1009.49
2022-10-08T05:59:57.929Z,1009.46
2022-10-08T06:00:57.916Z,1009.50
2022-10-08T06:01:57.911Z,1009.52
2022-10-08T06:02:57.930Z,1009.57
2022-10-08T06:03:57.904Z,1009.55
2022-10-08T06:04:57.915Z,1009.56
2022-10-08T06:05:57.861Z,1009.55
2022-10-08T06:06:57.838Z,1009.60
2022-10-08T06:07:57.837Z,1009.59
2022-10-08T06:08:57.841Z,1009.56
2022-10-08T06:09:57.814Z,1009.55
2022-10-08T06:10:57.813Z,1009.58
2022-10-08T06:11:57.789Z,1009.55
2022-10-08T06:12:57.778Z,1009.55
2022-10-08T06:13:57.796Z,1009.58
2022-10-08T06:14:57.796Z,1009.52
2022-10-08T06:15:57.799Z,1009.56
2022-10-08T06:16:57.726Z,1009.58
2022-10-08T06:17:57.739Z,1009.56
2022-10-08T06:18:57.707Z,1009.61
2022-10-08T06:19:57.720Z,1009.61
2022-10-08T06:20:57.710Z,1009.63
2022-10-08T06:21:57.688Z,1009.65
2022-10-08T06:22:57.661Z,1009.65
2022-10-08T06:23:57.652Z,1009.65
2022-10-08T06:24:57.655Z,1009.67
2022-10-08T06:25:57.637Z,1009.68
2022-10-08T06:26:57.628Z,1009.73
2022-10-08T06:27:57.624Z,1009.78
2022-10-08T06:28:57.617Z,1009.75
2022-10-08T06:29:57.591Z,1009.73
2022-10-08T06:30:57.596Z,1009.77
2022-10-08T06:31:57.601Z,1009.80
2022-10-08T06:32:57.561Z,1009.81
2022-10-08T06:33:57.547Z,1009.82
2022-10-08T06:34:57.527Z,1009.88
2022-10-08T06:35:57.537Z,1009.89
2022-10-08T06:36:57.530Z,1009.90
2022-10-08T06:37:57.490Z,1009.85
2022-10-08T06:38:57.488Z,1009.93
2022-10-08T06:39:57.473Z,1009.89
2022-10-08T06:40:57.460Z,1009.93
2022-10-08T06:41:57.486Z,1009.92
2022-10-08T06:42:57.439Z,1009.92
2022-10-08T06:43:57.444Z,1009.93
2022-10-08T06:45:01.969Z,1009.95
2022-10-08T06:45:57.414Z,1009.97
2022-10-08T06:46:57.482Z,1010.02
2022-10-08T06:47:57.395Z,1010.02
2022-10-08T06:48:57.363Z,1010.04
2022-10-08T06:49:57.369Z,1010.07
2022-10-08T06:50:57.345Z,1010.02
2022-10-08T06:51:57.332Z,1010.04
2022-10-08T06:52:57.334Z,1010.07
2022-10-08T06:54:00.335Z,1010.12
2022-10-08T06:54:57.310Z,1010.09
2022-10-08T06:55:57.297Z,1010.05
2022-10-08T06:56:57.289Z,1010.07
2022-10-08T06:57:57.264Z,1010.08
2022-10-08T06:58:57.283Z,1010.04
2022-10-08T06:59:57.310Z,1010.04
2022-10-08T07:00:57.271Z,1010.09
2022-10-08T07:01:57.267Z,1010.09
2022-10-08T07:02:57.214Z,1010.16
2022-10-08T07:03:57.228Z,1010.12
2022-10-08T07:04:57.199Z,1010.13
2022-10-08T07:05:57.171Z,1010.20
2022-10-08T07:06:57.171Z,1010.20
2022-10-08T07:07:57.151Z,1010.19
2022-10-08T07:08:57.184Z,1010.16
2022-10-08T07:09:57.147Z,1010.26
2022-10-08T07:10:57.120Z,1010.25
2022-10-08T07:11:57.108Z,1010.26
2022-10-08T07:12:57.098Z,1010.25
2022-10-08T07:13:57.092Z,1010.29
2022-10-08T07:14:57.105Z,1010.30
2022-10-08T07:15:57.119Z,1010.28
2022-10-08T07:16:57.068Z,1010.34
2022-10-08T07:17:57.049Z,1010.37
2022-10-08T07:18:57.032Z,1010.42
2022-10-08T07:19:57.019Z,1010.38
2022-10-08T07:20:57.040Z,1010.52
2022-10-08T07:22:01.181Z,1010.50
2022-10-08T07:22:56.999Z,1010.52
2022-10-08T07:23:56.963Z,1010.55
2022-10-08T07:24:56.986Z,1010.62
2022-10-08T07:25:56.967Z,1010.68
2022-10-08T07:26:56.953Z,1010.71
2022-10-08T07:27:56.928Z,1010.69
2022-10-08T07:28:56.916Z,1010.69
2022-10-08T07:29:56.908Z,1010.71
2022-10-08T07:30:56.920Z,1010.68
2022-10-08T07:31:56.962Z,1010.67
2022-10-08T07:32:56.874Z,1010.71
2022-10-08T07:33:56.864Z,1010.68
2022-10-08T07:35:00.005Z,1010.70
2022-10-08T07:35:56.873Z,1010.74
2022-10-08T07:36:56.837Z,1010.77
2022-10-08T07:37:56.818Z,1010.81
2022-10-08T07:38:56.806Z,1010.80
2022-10-08T07:39:56.805Z,1010.79
2022-10-08T07:40:56.782Z,1010.79
2022-10-08T07:41:56.806Z,1010.81
2022-10-08T07:42:56.755Z,1010.85
2022-10-08T07:43:56.751Z,1010.84
2022-10-08T07:44:56.746Z,1010.86
2022-10-08T07:45:56.770Z,1010.88
2022-10-08T07:46:56.710Z,1010.89
2022-10-08T07:47:56.726Z,1010.85
2022-10-08T07:48:56.709Z,1010.88
2022-10-08T07:49:57.162Z,1010.91
2022-10-08T07:50:56.677Z,1010.89
2022-10-08T07:51:56.663Z,1010.90
2022-10-08T07:52:56.645Z,1010.92
2022-10-08T07:54:00.257Z,1010.93
2022-10-08T07:54:56.627Z,1010.85
2022-10-08T07:55:56.609Z,1010.90
2022-10-08T07:56:56.606Z,1010.90
2022-10-08T07:57:56.580Z,1010.88
2022-10-08T07:58:56.569Z,1010.91
2022-10-08T07:59:56.951Z,1010.94
2022-10-08T08:00:56.599Z,1010.98
2022-10-08T08:01:56.557Z,1010.99
2022-10-08T08:02:56.528Z,1010.98
2022-10-08T08:03:56.519Z,1011.04
2022-10-08T08:04:56.515Z,1011.01
2022-10-08T08:05:56.520Z,1011.05
2022-10-08T08:06:56.493Z,1011.05
2022-10-08T08:07:56.493Z,1011.07
2022-10-08T08:08:56.481Z,1011.08
2022-10-08T08:09:56.453Z,1011.09
2022-10-08T08:10:56.459Z,1011.13
2022-10-08T08:11:56.439Z,1011.18
2022-10-08T08:12:56.413Z,1011.16
2022-10-08T08:13:56.416Z,1011.17
2022-10-08T08:14:56.392Z,1011.19
2022-10-08T08:15:56.378Z,1011.24
2022-10-08T08:16:56.437Z,1011.29
2022-10-08T08:17:56.365Z,1011.29
2022-10-08T08:18:56.353Z,1011.32
2022-10-08T08:19:56.342Z,1011.30
2022-10-08T08:20:56.335Z,1011.35
2022-10-08T08:21:56.317Z,1011.34
2022-10-08T08:22:56.356Z,1011.31
2022-10-08T08:23:56.293Z,1011.31
2022-10-08T08:24:56.279Z,1011.37
2022-10-08T08:25:56.273Z,1011.37
2022-10-08T08:26:57.821Z,1011.39
2022-10-08T08:27:56.242Z,1011.38
2022-10-08T08:28:56.246Z,1011.42
2022-10-08T08:29:56.239Z,1011.39
2022-10-08T08:30:56.197Z,1011.44
2022-10-08T08:31:56.259Z,1011.47
2022-10-08T08:32:56.193Z,1011.48
2022-10-08T08:33:56.186Z,1011.49
2022-10-08T08:34:56.203Z,1011.44
2022-10-08T08:35:56.155Z,1011.47
2022-10-08T08:36:56.148Z,1011.48
2022-10-08T08:37:56.125Z,1011.54
2022-10-08T08:38:56.114Z,1011.48
2022-10-08T08:39:56.090Z,1011.53
2022-10-08T08:40:56.113Z,1011.52
2022-10-08T08:41:56.107Z,1011.51
2022-10-08T08:42:56.079Z,1011.58
2022-10-08T08:43:56.053Z,1011.59
2022-10-08T08:44:56.052Z,1011.67
2022-10-08T08:45:56.085Z,1011.74
2022-10-08T08:46:56.022Z,1011.70
2022-10-08T08:47:56.013Z,1011.72
2022-10-08T08:48:56.022Z,1011.74
2022-10-08T08:49:55.981Z,1011.70
2022-10-08T08:50:55.983Z,1011.74
2022-10-08T08:51:55.985Z,1011.75
2022-10-08T08:52:55.960Z,1011.75
2022-10-08T08:53:55.939Z,1011.74
2022-10-08T08:54:55.937Z,1011.78
2022-10-08T08:55:55.917Z,1011.76
2022-10-08T08:56:55.927Z,1011.76
2022-10-08T08:57:55.895Z,1011.74
2022-10-08T08:58:55.913Z,1011.76
2022-10-08T08:59:55.926Z,1011.77
2022-10-08T09:00:55.989Z,1011.76
2022-10-08T09:01:55.850Z,1011.79
2022-10-08T09:02:55.867Z,1011.76
2022-10-08T09:03:55.818Z,1011.77
2022-10-08T09:04:55.810Z,1011.82
2022-10-08T09:05:55.846Z,1011.81
2022-10-08T09:06:55.800Z,1011.79
2022-10-08T09:07:55.786Z,1011.83
2022-10-08T09:08:55.790Z,1011.79
2022-10-08T09:09:55.849Z,1011.82
2022-10-08T09:10:55.761Z,1011.82
2022-10-08T09:11:55.733Z,1011.77
2022-10-08T09:12:55.731Z,1011.85
2022-10-08T09:13:55.749Z,1011.82
2022-10-08T09:14:55.709Z,1011.83
2022-10-08T09:15:55.682Z,1011.86
2022-10-08T09:16:55.744Z,1011.92
2022-10-08T09:17:55.668Z,1011.96
2022-10-08T09:18:55.653Z,1011.99
2022-10-08T09:19:55.692Z,1011.98
2022-10-08T09:20:55.658Z,1011.96
2022-10-08T09:21:55.628Z,1012.00
2022-10-08T09:22:55.613Z,1012.02
2022-10-08T09:23:56.319Z,1012.02
2022-10-08T09:24:55.594Z,1012.02
2022-10-08T09:25:55.605Z,1012.03
2022-10-08T09:26:55.575Z,1012.02
2022-10-08T09:27:55.558Z,1012.16
2022-10-08T09:28:55.550Z,1012.08
2022-10-08T09:29:55.650Z,1012.09
2022-10-08T09:30:58.821Z,1012.06
2022-10-08T09:31:55.523Z,1012.13
2022-10-08T09:32:55.498Z,1012.15
2022-10-08T09:33:55.504Z,1012.15
2022-10-08T09:34:55.486Z,1012.12
2022-10-08T09:35:55.494Z,1012.15
2022-10-08T09:36:55.455Z,1012.14
2022-10-08T09:37:55.448Z,1012.19
2022-10-08T09:38:55.422Z,1012.20
2022-10-08T09:39:55.452Z,1012.22
2022-10-08T09:40:55.438Z,1012.21
2022-10-08T09:41:55.455Z,1012.24
2022-10-08T09:42:55.393Z,1012.26
2022-10-08T09:43:55.385Z,1012.29
2022-10-08T09:44:55.387Z,1012.22
2022-10-08T09:45:55.405Z,1012.19
2022-10-08T09:46:55.362Z,1012.27
2022-10-08T09:47:55.344Z,1012.28
2022-10-08T09:48:55.334Z,1012.33
2022-10-08T09:49:55.310Z,1012.36
2022-10-08T09:50:55.311Z,1012.36
2022-10-08T09:51:55.315Z,1012.35
2022-10-08T09:52:55.287Z,1012.30
2022-10-08T09:53:55.263Z,1012.32
2022-10-08T09:54:55.266Z,1012.32
2022-10-08T09:55:55.253Z,1012.30
2022-10-08T09:56:55.247Z,1012.26
2022-10-08T09:57:55.244Z,1012.30
2022-10-08T09:58:55.207Z,1012.26
2022-10-08T09:59:55.237Z,1012.21
2022-10-08T10:00:55.202Z,1012.25
2022-10-08T10:01:55.220Z,1012.31
2022-10-08T10:02:55.175Z,1012.27
2022-10-08T10:03:55.232Z,1012.30
2022-10-08T10:04:55.149Z,1012.36
2022-10-08T10:05:55.156Z,1012.34
2022-10-08T10:06:55.161Z,1012.33
2022-10-08T10:07:55.129Z,1012.31
2022-10-08T10:08:55.099Z,1012.41
2022-10-08T10:09:55.084Z,1012.40
2022-10-08T10:10:55.077Z,1012.41
2022-10-08T10:11:55.098Z,1012.46
2022-10-08T10:12:55.080Z,1012.41
2022-10-08T10:13:55.051Z,1012.39
2022-10-08T10:14:55.122Z,1012.37
2022-10-08T10:15:55.022Z,1012.35
2022-10-08T10:16:55.144Z,1012.38
2022-10-08T10:17:55.037Z,1012.37
2022-10-08T10:18:54.996Z,1012.37
2022-10-08T10:19:54.980Z,1012.39
2022-10-08T10:20:54.979Z,1012.36
2022-10-08T10:21:54.956Z,1012.39
2022-10-08T10:22:55.043Z,1012.42
2022-10-08T10:23:54.934Z,1012.38
2022-10-08T10:24:54.938Z,1012.40
2022-10-08T10:25:57.645Z,1012.40
2022-10-08T10:26:54.895Z,1012.34
2022-10-08T10:27:54.911Z,1012.36
2022-10-08T10:28:54.878Z,1012.33
2022-10-08T10:29:54.869Z,1012.43
2022-10-08T10:30:54.905Z,1012.38
2022-10-08T10:31:54.849Z,1012.40
2022-10-08T10:32:54.918Z,1012.35
2022-10-08T10:33:54.821Z,1012.32
2022-10-08T10:34:54.845Z,1012.35
2022-10-08T10:35:54.813Z,1012.35
2022-10-08T10:36:54.829Z,1012.28
2022-10-08T10:37:54.792Z,1012.29
2022-10-08T10:38:54.795Z,1012.29
2022-10-08T10:39:54.743Z,1012.33
2022-10-08T10:40:54.773Z,1012.33
2022-10-08T10:41:54.858Z,1012.41
2022-10-08T10:42:54.708Z,1012.44
2022-10-08T10:43:54.739Z,1012.43
2022-10-08T10:44:54.706Z,1012.38
2022-10-08T10:45:54.780Z,1012.43
2022-10-08T10:46:54.670Z,1012.45
2022-10-08T10:47:54.695Z,1012.40
2022-10-08T10:48:54.653Z,1012.38
2022-10-08T10:49:54.677Z,1012.42
2022-10-08T10:50:54.627Z,1012.43
2022-10-08T10:51:54.612Z,1012.46
2022-10-08T10:52:54.588Z,1012.43
2022-10-08T10:53:54.582Z,1012.48
2022-10-08T10:54:54.575Z,1012.53
2022-10-08T10:55:55.004Z,1012.59
2022-10-08T10:56:54.555Z,1012.73
2022-10-08T10:57:54.557Z,1012.73
2022-10-08T10:58:54.536Z,1012.69
2022-10-08T10:59:54.511Z,1012.67
2022-10-08T11:00:54.527Z,1012.69
2022-10-08T11:01:54.554Z,1012.76
2022-10-08T11:02:54.517Z,1012.70
2022-10-08T11:03:54.469Z,1012.73
2022-10-08T11:04:57.115Z,1012.73
2022-10-08T11:05:55.064Z,1012.76
2022-10-08T11:06:54.832Z,1012.71
2022-10-08T11:07:54.432Z,1012.73
2022-10-08T11:08:57.576Z,1012.74
2022-10-08T11:09:54.426Z,1012.81
2022-10-08T11:10:54.425Z,1012.84
2022-10-08T11:11:54.419Z,1012.81
2022-10-08T11:12:54.416Z,1012.83
2022-10-08T11:13:54.388Z,1012.81
2022-10-08T11:14:54.347Z,1012.82
2022-10-08T11:15:54.504Z,1012.80
2022-10-08T11:16:54.318Z,1012.77
2022-10-08T11:17:54.351Z,1012.80
2022-10-08T11:18:54.319Z,1012.78
2022-10-08T11:19:54.303Z,1012.77
2022-10-08T11:20:54.280Z,1012.76
2022-10-08T11:21:54.286Z,1012.77
2022-10-08T11:22:54.268Z,1012.81
2022-10-08T11:23:54.301Z,1012.73
2022-10-08T11:24:54.240Z,1012.75
2022-10-08T11:26:16.489Z,1012.74
2022-10-08T11:26:54.226Z,1012.81
2022-10-08T11:27:54.225Z,1012.74
2022-10-08T11:28:54.201Z,1012.75
2022-10-08T11:29:54.209Z,1012.76
2022-10-08T11:30:54.210Z,1012.70
2022-10-08T11:31:54.172Z,1012.70
2022-10-08T11:32:54.153Z,1012.69
2022-10-08T11:33:54.145Z,1012.65
2022-10-08T11:34:54.145Z,1012.70
2022-10-08T11:35:54.133Z,1012.67
2022-10-08T11:36:54.107Z,1012.65
2022-10-08T11:37:54.122Z,1012.65
2022-10-08T11:38:54.086Z,1012.66
2022-10-08T11:39:54.065Z,1012.63
2022-10-08T11:40:54.082Z,1012.68
2022-10-08T11:41:54.034Z,1012.71
2022-10-08T11:42:54.536Z,1012.61
2022-10-08T11:43:54.012Z,1012.65
2022-10-08T11:44:54.054Z,1012.69
2022-10-08T11:45:54.069Z,1012.65
2022-10-08T11:46:53.994Z,1012.64
2022-10-08T11:47:53.966Z,1012.63
2022-10-08T11:48:53.986Z,1012.71
2022-10-08T11:49:53.967Z,1012.69
2022-10-08T11:50:53.986Z,1012.64
2022-10-08T11:51:53.930Z,1012.64
2022-10-08T11:52:53.950Z,1012.64
2022-10-08T11:53:53.894Z,1012.60
2022-10-08T11:54:55.882Z,1012.62
2022-10-08T11:55:53.920Z,1012.64
2022-10-08T11:56:53.882Z,1012.61
2022-10-08T11:58:07.714Z,1012.59
2022-10-08T11:58:53.860Z,1012.56
2022-10-08T11:59:53.840Z,1012.63
2022-10-08T12:00:53.850Z,1012.66
2022-10-08T12:01:53.807Z,1012.60
2022-10-08T12:02:53.951Z,1012.63
2022-10-08T12:03:53.821Z,1012.63
2022-10-08T12:04:53.788Z,1012.59